Terminal Aerodrome Forecast
Issued by NWS

Home | Current Version | Previous Version | Text Only | Print | Product List | Glossary On
Versions: 1 2 3 4 5 6 7 8 9 10 11 12 13 14 15 16 17 18 19 20 21 22 23 24 25 26 27 28 29 30 31 32 33 34 35 36 37 38 39 40 41
000
FTUS44 KFWD 231739
TAFGKY
TAF
KGKY 231739Z 2318/2418 14012KT 5SM -SHRA BR VCSH FEW008 OVC013
      TEMPO 2319/2323 2SM -TSRA BR BKN013 OVC020CB
     FM232300 14012KT 5SM -SHRA BR VCTS BKN013CB
     FM240400 13010KT 3SM SHRA BR VCTS OVC007CB
      TEMPO 2406/2410 1SM +TSRA BR OVC003CB
     FM241500 16015KT 4SM SHRA BR OVC008=

USA.gov is the U.S. government's official web portal to all federal, state and local government web resources and services.